Time;durP1;ratioP1;P1;durP2;ratioP2;P2;SDS_P1;SDS_P2;PMS_P1;PMS_P2;Temp;Humidity;BMP_temperature;BMP_pressure;BME280_temperature;BME280_humidity;BME280_pressure;Samples;Min_cycle;Max_cycle;Signal;HPM_P1;HPM_P2
2022/08/17 00:00:26;;;;;;;24.63;11.45;;;;;;;23.28;100.00;99721.22;31520471;28;20048;-78
2022/08/17 00:15:45;;;;;;;15.65;11.07;;;;;;;23.17;100.00;99715.75;31526653;28;20053;-78
2022/08/17 00:30:50;;;;;;;20.27;11.02;;;;;;;22.99;100.00;99727.44;31557242;28;20048;-78
2022/08/17 00:45:55;;;;;;;19.08;13.00;;;;;;;22.90;100.00;99722.22;31547562;28;20079;-76
2022/08/17 01:01:01;;;;;;;19.85;13.27;;;;;;;22.57;100.00;99715.56;31540205;28;20045;-77
2022/08/17 01:16:08;;;;;;;24.15;13.23;;;;;;;22.44;100.00;99712.59;31529288;28;20424;-78
2022/08/17 01:31:11;;;;;;;22.25;14.75;;;;;;;22.39;100.00;99699.56;31527544;28;20420;-78
2022/08/17 01:46:19;;;;;;;25.50;14.30;;;;;;;22.48;100.00;99685.44;31529671;28;20048;-78
2022/08/17 02:01:25;;;;;;;18.15;12.18;;;;;;;22.49;100.00;99686.94;31537554;28;20048;-77
2022/08/17 02:16:27;;;;;;;20.05;14.43;;;;;;;22.42;100.00;99670.91;31574839;28;20056;-77
2022/08/17 02:31:38;;;;;;;24.10;14.32;;;;;;;22.34;100.00;99665.16;31569144;28;20048;-77
2022/08/17 02:46:40;;;;;;;26.13;14.60;;;;;;;22.41;100.00;99677.69;31537873;28;20049;-77
2022/08/17 03:01:42;;;;;;;25.10;15.00;;;;;;;22.39;100.00;99680.22;31546452;28;20525;-77
2022/08/17 03:16:44;;;;;;;19.97;13.13;;;;;;;22.59;100.00;99690.16;31549686;28;20056;-77
2022/08/17 03:31:48;;;;;;;21.00;13.40;;;;;;;22.80;100.00;99696.88;31549677;28;20103;-77
2022/08/17 04:02:14;;;;;;;21.27;14.30;;;;;;;23.36;100.00;99694.47;31528482;28;20048;-79
2022/08/17 04:17:16;;;;;;;21.80;12.82;;;;;;;23.79;100.00;99685.53;31562759;28;20089;-76
2022/08/17 04:32:20;;;;;;;23.52;12.88;;;;;;;24.32;100.00;99686.72;31527987;28;20106;-78
2022/08/17 04:47:42;;;;;;;18.03;11.80;;;;;;;24.85;100.00;99680.69;31521592;28;20044;-77
2022/08/17 05:02:49;;;;;;;17.13;9.80;;;;;;;25.46;100.00;99674.97;31537210;28;20047;-76
2022/08/17 05:17:51;;;;;;;14.50;8.48;;;;;;;25.93;100.00;99663.28;31522531;28;20083;-78
2022/08/17 05:32:57;;;;;;;17.05;9.13;;;;;;;26.47;100.00;99664.72;31534979;28;20531;-77
2022/08/17 05:47:59;;;;;;;18.10;8.68;;;;;;;27.40;100.00;99668.63;31561917;28;20047;-77
2022/08/17 06:03:38;;;;;;;14.82;9.88;;;;;;;27.72;85.78;99670.38;31580311;28;20385;-80
2022/08/17 06:18:58;;;;;;;12.18;7.85;;;;;;;28.01;78.36;99671.84;31567206;28;20477;-78
2022/08/17 06:34:02;;;;;;;14.68;8.95;;;;;;;28.69;77.59;99679.78;31535335;28;20051;-79
2022/08/17 06:49:14;;;;;;;17.20;8.38;;;;;;;29.16;73.28;99670.94;31564156;28;20044;-74
2022/08/17 07:04:25;;;;;;;17.27;8.35;;;;;;;29.81;70.54;99681.72;31562310;28;20048;-75
2022/08/17 07:19:31;;;;;;;13.43;8.10;;;;;;;29.96;68.31;99670.53;31565613;28;20056;-73
2022/08/17 07:35:03;;;;;;;11.18;7.20;;;;;;;29.26;72.29;99682.31;31553718;28;20070;-75
2022/08/17 07:50:32;;;;;;;14.77;8.02;;;;;;;29.79;65.49;99678.75;31568425;28;20119;-77
2022/08/17 08:05:48;;;;;;;12.63;6.75;;;;;;;31.47;56.09;99659.81;31527864;28;20071;-75
2022/08/17 08:20:58;;;;;;;11.07;6.43;;;;;;;32.34;54.61;99665.47;31587194;28;20074;-87
2022/08/17 08:36:37;;;;;;;8.77;5.67;;;;;;;33.37;46.57;99636.97;31552411;28;20060;-73
2022/08/17 08:52:02;;;;;;;9.13;5.33;;;;;;;32.73;46.80;99627.09;31554550;28;20036;-73
2022/08/17 09:07:20;;;;;;;9.43;5.97;;;;;;;31.01;52.66;99616.63;31544632;28;20078;-73
2022/08/17 09:22:41;;;;;;;13.50;9.18;;;;;;;31.51;50.62;99620.13;31552100;28;20052;-79
2022/08/17 09:38:08;;;;;;;10.52;6.28;;;;;;;33.04;48.94;99628.16;31560678;28;20060;-82
2022/08/17 09:53:12;;;;;;;9.52;6.47;;;;;;;31.67;53.05;99645.97;31547528;28;20037;-75
2022/08/17 10:08:14;;;;;;;10.80;6.07;;;;;;;30.75;57.15;99640.34;31538954;28;20048;-73
2022/08/17 10:39:29;;;;;;;12.07;6.13;;;;;;;31.17;53.43;99634.84;31547125;28;20060;-76
2022/08/17 10:54:39;;;;;;;29.70;18.40;;;;;;;30.35;58.07;99615.91;31555040;28;20045;-74
2022/08/17 11:10:24;;;;;;;7.85;5.72;;;;;;;30.69;55.20;99606.97;31565251;28;20521;-73
2022/08/17 11:25:37;;;;;;;12.82;7.05;;;;;;;32.44;50.39;99593.25;31498784;28;20052;-74
2022/08/17 11:41:13;;;;;;;7.32;4.35;;;;;;;33.70;40.18;99577.47;31583886;28;20039;-77
2022/08/17 11:56:40;;;;;;;5.82;4.40;;;;;;;31.87;43.80;99577.50;31542923;28;20059;-74
2022/08/17 12:11:58;;;;;;;5.82;3.70;;;;;;;30.89;43.87;99570.78;31537851;28;20040;-74
2022/08/17 12:27:23;;;;;;;15.02;7.47;;;;;;;30.26;47.03;99568.16;31530748;28;20429;-73
2022/08/17 12:42:55;;;;;;;5.50;4.05;;;;;;;29.55;47.74;99548.66;31546428;28;20056;-82
2022/08/17 12:57:58;;;;;;;6.80;3.80;;;;;;;29.37;50.54;99544.97;31534457;28;20098;-74
2022/08/17 13:13:16;;;;;;;5.90;4.10;;;;;;;29.65;50.79;99555.16;31560886;28;20458;-82
2022/08/17 13:28:26;;;;;;;6.80;4.60;;;;;;;29.72;51.10;99562.06;31532377;28;20058;-75
2022/08/17 13:43:47;;;;;;;7.45;4.45;;;;;;;29.49;51.38;99557.28;31534210;28;20128;-72
2022/08/17 13:59:01;;;;;;;10.82;4.63;;;;;;;29.49;52.23;99556.53;31548461;28;20066;-73
2022/08/17 14:14:03;;;;;;;6.07;3.80;;;;;;;29.63;52.39;99559.84;31567845;28;20501;-73
2022/08/17 14:29:06;;;;;;;8.57;4.80;;;;;;;29.41;52.21;99550.94;31540101;28;20064;-72
2022/08/17 14:44:16;;;;;;;;;;;;;;;29.33;53.10;99544.59;31545126;28;20048;-76
2022/08/17 14:59:18;;;;;;;6.90;4.40;;;;;;;29.33;53.17;99541.78;31563946;28;20468;-74
2022/08/17 15:14:20;;;;;;;5.55;3.53;;;;;;;29.18;53.38;99533.44;31543695;28;20048;-74
2022/08/17 15:29:22;;;;;;;6.22;4.40;;;;;;;28.80;53.73;99536.25;31548331;28;20062;-74
2022/08/17 15:44:25;;;;;;;9.57;3.90;;;;;;;28.51;52.24;99532.88;31555007;28;20044;-76
2022/08/17 15:59:34;;;;;;;6.50;3.88;;;;;;;28.41;50.64;99543.09;31556069;28;20075;-77
2022/08/17 16:14:36;;;;;;;7.85;4.22;;;;;;;28.17;51.64;99575.75;31557992;28;20051;-75
2022/08/17 16:29:39;;;;;;;9.40;4.50;;;;;;;27.81;54.12;99602.94;31527057;28;20060;-74
2022/08/17 16:44:41;;;;;;;7.85;4.32;;;;;;;27.52;56.03;99630.81;31533006;28;20067;-74
2022/08/17 16:59:46;;;;;;;11.07;7.72;;;;;;;27.15;59.21;99637.59;31558547;28;20052;-75
2022/08/17 17:14:50;;;;;;;8.10;4.70;;;;;;;26.86;64.50;99626.91;31568152;28;20135;-75
2022/08/17 17:30:13;;;;;;;11.85;8.20;;;;;;;26.82;66.51;99624.44;31543861;27;20062;-75
2022/08/17 17:45:36;;;;;;;11.63;7.10;;;;;;;26.70;67.56;99612.81;31544136;28;20050;-76
2022/08/17 18:00:41;;;;;;;10.43;6.32;;;;;;;26.46;69.49;99619.44;31552468;28;20052;-74
2022/08/17 18:15:49;;;;;;;9.05;5.93;;;;;;;26.29;70.76;99607.16;31579674;28;20044;-76
2022/08/17 18:31:21;;;;;;;14.88;11.43;;;;;;;26.03;74.07;99607.94;31546815;28;20387;-76
2022/08/17 18:46:35;;;;;;;10.80;6.53;;;;;;;25.73;76.17;99611.09;31543051;28;20060;-76
2022/08/17 19:02:13;;;;;;;8.32;6.00;;;;;;;25.67;77.24;99611.19;31573345;28;20159;-78
2022/08/17 19:17:46;;;;;;;16.02;6.97;;;;;;;25.69;77.23;99605.09;31576648;28;20505;-75
2022/08/17 19:32:49;;;;;;;10.15;6.95;;;;;;;25.45;78.15;99615.13;31558971;28;20084;-75
2022/08/17 19:48:07;;;;;;;17.95;7.95;;;;;;;25.07;81.36;99617.28;31557003;28;20044;-77
2022/08/17 20:03:14;;;;;;;11.52;6.95;;;;;;;24.82;81.73;99622.19;31562605;28;20489;-76
2022/08/17 20:18:32;;;;;;;16.00;10.35;;;;;;;24.68;85.02;99639.31;31538419;28;20098;-75
2022/08/17 20:33:36;;;;;;;13.00;7.47;;;;;;;24.38;84.64;99634.69;31525051;28;20387;-75
2022/08/17 20:48:45;;;;;;;11.80;7.15;;;;;;;24.33;85.01;99612.59;31567919;28;20052;-75
2022/08/17 21:03:49;;;;;;;12.55;7.47;;;;;;;24.18;85.55;99620.56;31539773;28;20066;-76
2022/08/17 21:19:17;;;;;;;8.40;5.53;;;;;;;24.14;87.25;99627.16;31527459;28;20063;-72
2022/08/17 21:34:25;;;;;;;10.77;5.93;;;;;;;24.15;86.94;99617.56;31511545;28;20048;-72
2022/08/17 21:49:27;;;;;;;10.73;5.68;;;;;;;23.73;88.40;99598.94;31524841;28;20060;-71
2022/08/17 22:04:35;;;;;;;8.18;6.13;;;;;;;23.41;90.70;99596.72;31547248;28;20054;-72
2022/08/17 22:20:15;;;;;;;9.50;6.07;;;;;;;23.23;92.80;99607.72;31574357;28;20058;-72
2022/08/17 22:35:36;;;;;;;21.20;12.27;;;;;;;23.09;92.13;99609.63;31542931;28;20056;-70
2022/08/17 22:51:11;;;;;;;10.73;5.88;;;;;;;22.77;95.04;99607.34;31538491;28;20051;-71
2022/08/17 23:06:14;;;;;;;7.97;5.40;;;;;;;22.91;94.61;99604.72;31536969;28;20049;-72
2022/08/17 23:21:19;;;;;;;10.07;6.67;;;;;;;22.73;95.67;99598.53;31544420;28;20050;-70
2022/08/17 23:36:28;;;;;;;11.48;7.45;;;;;;;22.73;95.94;99601.28;31537964;28;20059;-72
2022/08/17 23:51:37;;;;;;;9.47;6.63;;;;;;;22.70;97.45;99613.38;31534228;28;20063;-71
